This is the latest recevied weather packets stored in our database for station/object KFSM. If no packets are shown the sender has not sent any weather packets the latest 1 day(s).
| Time | Temp. | Humidity | Pressure | Rain* | Wind** | Luminosity | Snow |
|---|---|---|---|---|---|---|---|
| 1778039015 | 15.56° C | 77% | 1008.1 hPa | - | - | - | - |
| 1778038414 | 15.56° C | 77% | 1008.1 hPa | - | - | - | - |
| 1778037209 | 15.56° C | 77% | 1008.1 hPa | - | - | - | - |
| 1778036607 | 15.56° C | 77% | 1008.1 hPa | - | - | - | - |
| 1778036008 | 16.67° C | 77% | 1006.4 hPa | - | - | - | - |
| 1778035408 | 16.67° C | 77% | 1006.4 hPa | - | - | - | - |
| 1778034807 | 16.67° C | 77% | 1006.4 hPa | - | - | - | - |
| 1778034210 | 16.67° C | 77% | 1006.4 hPa | - | - | - | - |
| 1778033609 | 16.67° C | 77% | 1006.4 hPa | - | - | - | - |
| 1778033010 | 16.67° C | 77% | 1006.4 hPa | - | - | - | - |
| 1778032410 | 17.78° C | 77% | 1006.1 hPa | - | - | - | - |
| 1778031809 | 17.78° C | 77% | 1006.1 hPa | - | - | - | - |
| 1778031210 | 17.78° C | 77% | 1006.1 hPa | - | - | - | - |
| 1778030608 | 17.78° C | 77% | 1006.1 hPa | - | - | - | - |
| 1778029408 | 17.78° C | 77% | 1005.8 hPa | - | - | - | - |
| 1778028811 | 20.56° C | 77% | 1004.1 hPa | - | - | - | - |
| 1778028209 | 20.56° C | 77% | 1004.1 hPa | - | - | - | - |
| 1778027608 | 20.56° C | 77% | 1004.1 hPa | - | - | - | - |
| 1778027007 | 20.56° C | 77% | 1004.1 hPa | - | - | - | - |
| 1778025212 | 25.56° C | 69% | 1003 hPa | - | - | - | - |
| 1778023412 | 25.56° C | 69% | 1003 hPa | - | - | - | - |
| 1778020410 | 25.56° C | 65% | 1003.4 hPa | - | - | - | - |
| 1778018013 | 26.67° C | 61% | 1003.7 hPa | - | - | - | - |
* Rain since midnight (hover to see other rain measurements)
** Current wind speed in m/s (hover to see current wind gust speed)